createdAt,value
2018-10-06T00:02:09.486Z,99.90
2018-10-06T00:04:37.725Z,99.90
2018-10-06T00:07:06.054Z,99.90
2018-10-06T00:09:34.582Z,99.90
2018-10-06T00:12:02.846Z,99.90
2018-10-06T00:14:31.084Z,99.90
2018-10-06T00:16:59.333Z,99.90
2018-10-06T00:19:27.575Z,99.90
2018-10-06T00:21:55.824Z,99.90
2018-10-06T00:24:24.126Z,99.90
2018-10-06T00:26:52.369Z,99.90
2018-10-06T00:29:20.620Z,99.90
2018-10-06T00:31:48.881Z,99.90
2018-10-06T00:34:17.133Z,99.90
2018-10-06T00:36:45.388Z,99.90
2018-10-06T00:39:13.633Z,99.90
2018-10-06T00:41:41.884Z,99.90
2018-10-06T00:44:10.232Z,99.90
2018-10-06T00:46:38.476Z,99.90
2018-10-06T00:49:06.742Z,99.90
2018-10-06T00:51:34.998Z,99.90
2018-10-06T00:54:03.241Z,99.90
2018-10-06T00:56:31.501Z,99.90
2018-10-06T00:58:59.740Z,99.90
2018-10-06T01:01:27.987Z,99.90
2018-10-06T01:03:56.416Z,99.90
2018-10-06T01:06:24.829Z,99.90
2018-10-06T01:08:53.330Z,99.90
2018-10-06T01:11:21.587Z,99.90
2018-10-06T01:13:49.839Z,99.90
2018-10-06T01:16:18.077Z,99.90
2018-10-06T01:18:46.344Z,99.90
2018-10-06T01:21:14.597Z,99.90
2018-10-06T01:23:42.838Z,99.90
2018-10-06T01:26:11.090Z,99.90
2018-10-06T01:28:39.345Z,99.90
2018-10-06T01:31:07.652Z,99.90
2018-10-06T01:33:35.933Z,99.90
2018-10-06T01:36:04.186Z,99.90
2018-10-06T01:38:32.452Z,99.90
2018-10-06T01:41:00.852Z,99.90
2018-10-06T01:43:29.105Z,99.90
2018-10-06T01:45:57.355Z,99.90
2018-10-06T01:48:25.611Z,99.90
2018-10-06T01:50:53.916Z,99.90
2018-10-06T01:53:22.118Z,99.90
2018-10-06T01:55:58.135Z,99.90
2018-10-06T01:58:26.404Z,99.90
2018-10-06T02:00:54.639Z,99.90
2018-10-06T02:03:22.889Z,99.90
2018-10-06T02:05:51.117Z,99.90
2018-10-06T02:08:19.356Z,99.90
2018-10-06T02:10:47.712Z,99.90
2018-10-06T02:13:16.195Z,99.90
2018-10-06T02:15:44.423Z,99.90
2018-10-06T02:18:12.720Z,99.90
2018-10-06T02:20:40.977Z,99.90
2018-10-06T02:23:09.276Z,99.90
2018-10-06T02:25:37.515Z,99.90
2018-10-06T02:28:05.872Z,99.90
2018-10-06T02:30:34.113Z,99.90
2018-10-06T02:33:02.381Z,99.90
2018-10-06T02:35:30.616Z,99.90
2018-10-06T02:37:58.874Z,99.90
2018-10-06T02:40:27.126Z,99.90
2018-10-06T02:42:55.489Z,99.90
2018-10-06T02:45:23.849Z,99.90
2018-10-06T02:47:52.210Z,99.90
2018-10-06T02:50:20.642Z,99.90
2018-10-06T02:52:49.050Z,99.90
2018-10-06T02:55:17.529Z,99.90
2018-10-06T02:57:45.964Z,99.90
2018-10-06T03:00:14.408Z,99.90
2018-10-06T03:02:42.869Z,99.90
2018-10-06T03:05:11.347Z,99.90
2018-10-06T03:07:39.730Z,99.90
2018-10-06T03:10:08.218Z,99.90
2018-10-06T03:12:36.655Z,99.90
2018-10-06T03:15:05.268Z,99.90
2018-10-06T03:17:33.712Z,99.90
2018-10-06T03:20:02.170Z,99.90
2018-10-06T03:22:30.527Z,99.90
2018-10-06T03:24:58.907Z,99.90
2018-10-06T03:27:27.406Z,99.90
2018-10-06T03:29:55.908Z,99.90
2018-10-06T03:32:24.356Z,99.90
2018-10-06T03:34:52.799Z,99.90
2018-10-06T03:37:21.530Z,99.90
2018-10-06T03:39:49.915Z,99.90
2018-10-06T03:42:18.302Z,99.90
2018-10-06T03:44:46.730Z,99.90
2018-10-06T03:47:15.125Z,99.90
2018-10-06T03:49:43.654Z,99.90
2018-10-06T03:52:12.045Z,99.90
2018-10-06T03:54:40.576Z,99.90
2018-10-06T03:57:08.995Z,99.90
2018-10-06T03:59:37.368Z,99.90
2018-10-06T04:02:05.778Z,99.90
2018-10-06T04:04:34.208Z,99.90
2018-10-06T04:07:02.644Z,99.90
2018-10-06T04:09:31.068Z,99.90
2018-10-06T04:11:59.505Z,99.90
2018-10-06T04:14:27.940Z,99.90
2018-10-06T04:16:56.410Z,99.90
2018-10-06T04:19:24.819Z,99.90
2018-10-06T04:21:53.224Z,99.90
2018-10-06T04:24:21.681Z,99.90
2018-10-06T04:26:50.090Z,99.90
2018-10-06T04:29:18.634Z,99.90
2018-10-06T04:31:47.107Z,99.90
2018-10-06T04:34:15.476Z,99.90
2018-10-06T04:36:43.812Z,99.90
2018-10-06T04:39:13.168Z,99.90
2018-10-06T04:41:41.663Z,99.90
2018-10-06T04:44:10.558Z,99.90
2018-10-06T04:46:39.478Z,99.90
2018-10-06T04:49:08.024Z,99.90
2018-10-06T04:51:36.523Z,99.90
2018-10-06T04:54:04.960Z,99.90
2018-10-06T04:56:33.354Z,99.90
2018-10-06T04:59:01.793Z,99.90
2018-10-06T05:01:30.232Z,99.90
2018-10-06T05:03:58.654Z,99.90
2018-10-06T05:06:27.154Z,99.90
2018-10-06T05:08:55.559Z,99.90
2018-10-06T05:11:23.982Z,99.90
2018-10-06T05:13:54.083Z,99.90
2018-10-06T05:16:22.512Z,99.90
2018-10-06T05:18:50.864Z,99.90
2018-10-06T05:21:19.234Z,99.90
2018-10-06T05:23:47.621Z,99.90
2018-10-06T05:26:16.127Z,99.90
2018-10-06T05:28:44.538Z,99.90
2018-10-06T05:31:12.974Z,99.90
2018-10-06T05:33:41.449Z,99.90
2018-10-06T05:36:09.945Z,99.90
2018-10-06T05:38:38.558Z,99.90
2018-10-06T05:41:07.009Z,99.90
2018-10-06T05:43:35.396Z,99.90
2018-10-06T05:46:03.802Z,99.90
2018-10-06T05:48:32.192Z,99.90
2018-10-06T05:51:00.619Z,99.90
2018-10-06T05:53:28.993Z,99.90
2018-10-06T05:55:57.412Z,99.90
2018-10-06T05:58:25.796Z,99.90
2018-10-06T06:00:54.167Z,99.90
2018-10-06T06:03:22.630Z,99.90
2018-10-06T06:05:51.016Z,99.90
2018-10-06T06:08:19.386Z,99.90
2018-10-06T06:10:47.780Z,99.90
2018-10-06T06:13:16.148Z,99.90
2018-10-06T06:15:44.591Z,99.90
2018-10-06T06:18:12.942Z,99.90
2018-10-06T06:20:41.384Z,99.90
2018-10-06T06:23:09.909Z,99.90
2018-10-06T06:25:38.273Z,99.90
2018-10-06T06:28:06.671Z,99.90
2018-10-06T06:30:35.067Z,99.90
2018-10-06T06:33:03.989Z,99.90
2018-10-06T06:35:32.433Z,99.90
2018-10-06T06:38:00.906Z,99.90
2018-10-06T06:40:29.389Z,99.90
2018-10-06T06:42:57.857Z,99.90
2018-10-06T06:45:26.258Z,99.90
2018-10-06T06:47:54.726Z,99.90
2018-10-06T06:50:23.214Z,99.90
2018-10-06T06:52:51.605Z,99.90
2018-10-06T06:55:20.055Z,99.90
2018-10-06T06:57:48.546Z,99.90
2018-10-06T07:00:17.062Z,99.90
2018-10-06T07:02:45.497Z,99.90
2018-10-06T07:05:14.050Z,99.90
2018-10-06T07:07:42.497Z,99.90
2018-10-06T07:10:10.939Z,99.90
2018-10-06T07:12:39.338Z,99.90
2018-10-06T07:15:07.873Z,99.90
2018-10-06T07:17:36.410Z,99.90
2018-10-06T07:20:04.997Z,99.90
2018-10-06T07:22:33.337Z,99.90
2018-10-06T07:25:01.808Z,99.90
2018-10-06T07:27:30.272Z,99.90
2018-10-06T07:29:58.823Z,99.90
2018-10-06T07:32:27.497Z,99.90
2018-10-06T07:34:55.944Z,99.90
2018-10-06T07:37:24.824Z,99.90
2018-10-06T07:39:53.560Z,99.90
2018-10-06T07:42:21.990Z,99.90
2018-10-06T07:44:50.776Z,99.90
2018-10-06T07:47:19.188Z,99.90
2018-10-06T07:49:47.622Z,99.90
2018-10-06T07:52:16.069Z,99.90
2018-10-06T07:54:44.565Z,99.90
2018-10-06T07:57:13.160Z,99.90
2018-10-06T07:59:42.190Z,99.90
2018-10-06T08:02:10.894Z,99.90
2018-10-06T08:04:39.368Z,99.90
2018-10-06T08:07:07.884Z,99.90
2018-10-06T08:09:36.309Z,99.90
2018-10-06T08:12:05.027Z,99.90
2018-10-06T08:14:33.402Z,99.90
2018-10-06T08:17:01.866Z,99.90
2018-10-06T08:19:30.534Z,99.90
2018-10-06T08:21:58.912Z,99.90
2018-10-06T08:24:27.550Z,99.90
2018-10-06T08:26:56.188Z,99.90
2018-10-06T08:29:24.950Z,99.90
2018-10-06T08:31:53.538Z,99.90
2018-10-06T08:34:21.981Z,99.90
2018-10-06T08:36:50.640Z,99.90
2018-10-06T08:39:19.001Z,99.90
2018-10-06T08:41:47.508Z,99.90
2018-10-06T08:44:16.015Z,99.90
2018-10-06T08:46:44.652Z,99.90
2018-10-06T08:49:13.240Z,99.90
2018-10-06T08:51:41.738Z,99.90
2018-10-06T08:54:10.316Z,99.90
2018-10-06T08:56:38.850Z,99.90
2018-10-06T08:59:07.695Z,99.90
2018-10-06T09:01:36.557Z,99.90
2018-10-06T09:04:05.021Z,99.90
2018-10-06T09:06:33.534Z,99.90
2018-10-06T09:09:01.968Z,97.90
2018-10-06T09:11:30.477Z,99.20
2018-10-06T09:13:58.865Z,99.90
2018-10-06T09:16:27.814Z,99.90
2018-10-06T09:18:56.765Z,99.90
2018-10-06T09:21:25.529Z,99.90
2018-10-06T09:23:54.420Z,96.20
2018-10-06T09:26:22.981Z,93.80
2018-10-06T09:28:51.723Z,92.40
2018-10-06T09:31:20.294Z,90.70
2018-10-06T09:33:48.948Z,89.70
2018-10-06T09:36:17.377Z,90.00
2018-10-06T09:38:45.880Z,95.00
2018-10-06T09:41:14.324Z,94.50
2018-10-06T09:43:42.793Z,92.10
2018-10-06T09:46:12.583Z,94.20
2018-10-06T09:48:42.136Z,92.80
2018-10-06T09:51:11.969Z,94.30
2018-10-06T09:53:40.611Z,95.30
2018-10-06T09:56:09.093Z,95.50
2018-10-06T09:58:37.568Z,98.60
2018-10-06T10:01:11.508Z,98.60
2018-10-06T10:03:45.312Z,99.40
2018-10-06T10:06:13.672Z,99.90
2018-10-06T10:08:42.153Z,99.90
2018-10-06T10:11:10.698Z,98.40
2018-10-06T10:13:39.261Z,95.60
2018-10-06T10:16:07.581Z,93.80
2018-10-06T10:18:36.073Z,95.30
2018-10-06T10:21:04.381Z,97.90
2018-10-06T10:23:32.899Z,94.70
2018-10-06T10:26:01.269Z,94.00
2018-10-06T10:28:29.852Z,94.50
2018-10-06T10:30:58.203Z,99.90
2018-10-06T10:33:26.573Z,99.90
2018-10-06T10:35:54.910Z,99.90
2018-10-06T10:38:23.296Z,99.90
2018-10-06T10:40:52.750Z,99.90
2018-10-06T10:43:21.144Z,99.90
2018-10-06T10:45:49.513Z,97.10
2018-10-06T10:48:17.837Z,99.00
2018-10-06T10:50:46.136Z,99.90
2018-10-06T10:53:14.336Z,98.20
2018-10-06T10:55:43.024Z,99.90
2018-10-06T10:58:11.235Z,97.70
2018-10-06T11:00:39.589Z,94.60
2018-10-06T11:03:07.808Z,92.40
2018-10-06T11:05:36.057Z,92.40
2018-10-06T11:08:04.348Z,96.90
2018-10-06T11:10:32.620Z,94.40
2018-10-06T11:13:01.129Z,94.50
2018-10-06T11:15:29.415Z,95.10
2018-10-06T11:17:57.860Z,95.90
2018-10-06T11:20:26.127Z,95.80
2018-10-06T11:22:54.395Z,94.80
2018-10-06T11:25:22.697Z,95.40
2018-10-06T11:27:51.008Z,93.60
2018-10-06T11:30:19.379Z,94.90
2018-10-06T11:32:47.777Z,94.60
2018-10-06T11:35:16.160Z,93.00
2018-10-06T11:37:44.466Z,94.00
2018-10-06T11:40:12.669Z,93.80
2018-10-06T11:42:40.925Z,93.00
2018-10-06T11:45:09.415Z,92.50
2018-10-06T11:47:37.664Z,93.60
2018-10-06T11:50:06.094Z,93.70
2018-10-06T11:52:34.792Z,94.10
2018-10-06T11:55:04.141Z,93.80
2018-10-06T11:57:32.543Z,93.80
2018-10-06T12:00:01.183Z,92.60
2018-10-06T12:02:29.399Z,92.50
2018-10-06T12:04:58.712Z,90.90
2018-10-06T12:07:37.031Z,84.80
2018-10-06T12:10:05.866Z,81.50
2018-10-06T12:12:34.168Z,78.80
2018-10-06T12:15:02.477Z,82.20
2018-10-06T12:17:30.745Z,81.70
2018-10-06T12:19:59.048Z,79.10
2018-10-06T12:22:27.305Z,78.10
2018-10-06T12:24:55.595Z,83.90
2018-10-06T12:27:23.827Z,85.10
2018-10-06T12:29:52.089Z,87.50
2018-10-06T12:32:20.342Z,89.80
2018-10-06T12:34:48.689Z,90.50
2018-10-06T12:37:16.889Z,86.30
2018-10-06T12:39:45.152Z,83.10
2018-10-06T12:42:13.534Z,87.20
2018-10-06T12:44:41.761Z,85.60
2018-10-06T12:47:10.073Z,80.50
2018-10-06T12:49:38.335Z,82.30
2018-10-06T12:52:06.647Z,81.20
2018-10-06T12:54:34.925Z,84.20
2018-10-06T12:57:03.193Z,87.40
2018-10-06T12:59:31.731Z,87.60
2018-10-06T13:01:59.983Z,90.80
2018-10-06T13:04:28.285Z,92.20
2018-10-06T13:06:56.572Z,92.40
2018-10-06T13:09:24.808Z,90.10
2018-10-06T13:11:53.098Z,85.50
2018-10-06T13:14:21.360Z,82.90
2018-10-06T13:16:49.652Z,85.50
2018-10-06T13:19:17.904Z,84.90
2018-10-06T13:21:46.186Z,90.00
2018-10-06T13:24:14.432Z,85.70
2018-10-06T13:26:42.700Z,84.70
2018-10-06T13:29:11.004Z,80.30
2018-10-06T13:31:39.297Z,79.60
2018-10-06T13:34:07.594Z,78.80
2018-10-06T13:36:35.897Z,80.60
2018-10-06T13:39:05.387Z,70.20
2018-10-06T13:41:35.096Z,64.20
2018-10-06T13:44:03.387Z,63.20
2018-10-06T13:46:31.723Z,62.90
2018-10-06T13:48:59.985Z,66.60
2018-10-06T13:51:28.261Z,68.00
2018-10-06T13:53:56.567Z,73.00
2018-10-06T13:56:24.938Z,75.60
2018-10-06T13:58:53.289Z,71.80
2018-10-06T14:01:21.668Z,73.10
2018-10-06T14:03:50.084Z,71.50
2018-10-06T14:06:18.447Z,73.90
2018-10-06T14:08:46.853Z,76.20
2018-10-06T14:11:15.225Z,77.20
2018-10-06T14:13:43.627Z,76.20
2018-10-06T14:16:12.093Z,77.80
2018-10-06T14:18:40.467Z,76.90
2018-10-06T14:21:08.725Z,74.50
2018-10-06T14:23:37.779Z,70.50
2018-10-06T14:26:06.162Z,69.80
2018-10-06T14:28:34.456Z,75.00
2018-10-06T14:31:02.728Z,74.20
2018-10-06T14:33:31.007Z,73.40
2018-10-06T14:35:59.446Z,75.90
2018-10-06T14:38:27.808Z,72.90
2018-10-06T14:40:56.453Z,72.30
2018-10-06T14:43:24.744Z,66.90
2018-10-06T14:45:53.047Z,65.60
2018-10-06T14:48:21.420Z,61.40
2018-10-06T14:50:49.879Z,59.50
2018-10-06T14:53:18.924Z,62.90
2018-10-06T14:55:47.269Z,61.60
2018-10-06T14:58:15.845Z,61.80
2018-10-06T15:00:44.451Z,68.30
2018-10-06T15:03:12.748Z,67.50
2018-10-06T15:05:41.341Z,61.80
2018-10-06T15:08:10.163Z,60.80
2018-10-06T15:10:40.317Z,58.70
2018-10-06T15:13:08.589Z,59.00
2018-10-06T15:15:36.908Z,58.40
2018-10-06T15:18:05.269Z,61.80
2018-10-06T15:20:33.659Z,60.70
2018-10-06T15:23:01.989Z,64.70
2018-10-06T15:25:30.253Z,69.50
2018-10-06T15:27:58.920Z,70.20
2018-10-06T15:30:27.326Z,69.50
2018-10-06T15:32:55.872Z,66.00
2018-10-06T15:35:24.110Z,65.50
2018-10-06T15:37:52.448Z,65.50
2018-10-06T15:40:20.660Z,69.30
2018-10-06T15:42:49.027Z,66.80
2018-10-06T15:45:17.478Z,71.10
2018-10-06T15:47:45.740Z,76.10
2018-10-06T15:50:15.266Z,76.70
2018-10-06T15:52:47.016Z,82.60
2018-10-06T15:55:16.316Z,85.60
2018-10-06T15:57:44.660Z,90.40
2018-10-06T16:00:13.442Z,92.80
2018-10-06T16:02:43.358Z,94.90
2018-10-06T16:05:13.244Z,97.30
2018-10-06T16:07:41.886Z,99.60
2018-10-06T16:10:10.164Z,99.90
2018-10-06T16:12:38.428Z,99.90
2018-10-06T16:15:06.712Z,99.90
2018-10-06T16:17:35.435Z,99.90
2018-10-06T16:20:04.023Z,99.90
2018-10-06T16:22:34.352Z,99.90
2018-10-06T16:25:02.690Z,99.90
2018-10-06T16:27:31.087Z,99.90
2018-10-06T16:29:59.431Z,99.90
2018-10-06T16:32:27.680Z,99.90
2018-10-06T16:35:01.571Z,99.90
2018-10-06T16:37:29.937Z,99.90
2018-10-06T16:39:58.231Z,99.90
2018-10-06T16:42:27.336Z,99.90
2018-10-06T16:44:56.284Z,99.90
2018-10-06T16:47:24.591Z,99.90
2018-10-06T16:49:55.293Z,99.90
2018-10-06T16:52:23.606Z,99.90
2018-10-06T16:54:54.148Z,99.90
2018-10-06T16:57:23.116Z,99.90
2018-10-06T16:59:52.015Z,99.90
2018-10-06T17:02:20.317Z,99.90
2018-10-06T17:04:51.640Z,99.90
2018-10-06T17:07:22.756Z,99.90
2018-10-06T17:09:52.033Z,99.90
2018-10-06T17:12:20.586Z,99.90
2018-10-06T17:14:51.560Z,99.90
2018-10-06T17:17:20.701Z,99.90
2018-10-06T17:19:48.982Z,99.90
2018-10-06T17:22:17.641Z,99.90
2018-10-06T17:24:45.922Z,99.90
2018-10-06T17:27:15.114Z,99.90
2018-10-06T17:29:43.538Z,99.90
2018-10-06T17:32:11.849Z,99.90
2018-10-06T17:34:40.107Z,99.90
2018-10-06T17:37:10.575Z,99.90
2018-10-06T17:39:39.784Z,99.90
2018-10-06T17:42:08.070Z,99.90
2018-10-06T17:44:37.149Z,99.90
2018-10-06T17:47:05.463Z,99.90
2018-10-06T17:49:33.817Z,99.90
2018-10-06T17:52:02.381Z,99.90
2018-10-06T17:54:30.906Z,99.90
2018-10-06T17:56:59.332Z,99.90
2018-10-06T17:59:27.887Z,99.90
2018-10-06T18:01:56.830Z,99.90
2018-10-06T18:04:25.382Z,99.90
2018-10-06T18:06:53.880Z,99.90
2018-10-06T18:09:22.330Z,99.90
2018-10-06T18:11:50.979Z,99.90
2018-10-06T18:14:19.427Z,99.90
2018-10-06T18:16:47.885Z,99.90
2018-10-06T18:19:16.339Z,99.90
2018-10-06T18:21:44.694Z,99.90
2018-10-06T18:24:13.079Z,99.90
2018-10-06T18:26:42.824Z,99.90
2018-10-06T18:29:11.543Z,99.90
2018-10-06T18:31:40.092Z,99.90
2018-10-06T18:34:08.892Z,99.90
2018-10-06T18:36:37.651Z,99.90
2018-10-06T18:39:06.648Z,99.90
2018-10-06T18:41:35.443Z,99.90
2018-10-06T18:44:04.135Z,99.90
2018-10-06T18:46:32.839Z,99.90
2018-10-06T18:49:01.688Z,99.90
2018-10-06T18:51:30.190Z,99.90
2018-10-06T18:53:58.722Z,99.90
2018-10-06T18:56:27.235Z,99.90
2018-10-06T18:58:55.629Z,99.90
2018-10-06T19:01:24.025Z,99.90
2018-10-06T19:03:52.539Z,99.90
2018-10-06T19:06:21.039Z,99.90
2018-10-06T19:08:49.641Z,99.90
2018-10-06T19:11:18.247Z,99.90
2018-10-06T19:13:46.713Z,99.90
2018-10-06T19:16:15.401Z,99.90
2018-10-06T19:18:43.854Z,99.90
2018-10-06T19:21:12.397Z,99.90
2018-10-06T19:23:40.886Z,99.90
2018-10-06T19:26:20.927Z,99.90
2018-10-06T19:29:00.505Z,99.90
2018-10-06T19:31:28.917Z,99.90
2018-10-06T19:33:57.523Z,99.90
2018-10-06T19:36:25.962Z,99.90
2018-10-06T19:39:01.157Z,99.90
2018-10-06T19:41:29.860Z,99.90
2018-10-06T19:43:58.274Z,99.90
2018-10-06T19:46:26.870Z,99.90
2018-10-06T19:48:55.310Z,99.90
2018-10-06T19:51:23.848Z,99.90
2018-10-06T19:53:52.300Z,99.90
2018-10-06T19:56:20.782Z,99.90
2018-10-06T19:58:49.314Z,99.90
2018-10-06T20:01:28.572Z,99.90
2018-10-06T20:03:57.119Z,99.90
2018-10-06T20:06:25.637Z,99.90
2018-10-06T20:08:54.275Z,99.90
2018-10-06T20:11:22.853Z,99.90
2018-10-06T20:13:51.367Z,99.90
2018-10-06T20:16:19.873Z,99.90
2018-10-06T20:18:48.400Z,99.90
2018-10-06T20:21:16.836Z,99.90
2018-10-06T20:23:45.328Z,99.90
2018-10-06T20:26:13.944Z,99.90
2018-10-06T20:28:42.641Z,99.90
2018-10-06T20:31:11.189Z,99.90
2018-10-06T20:33:39.797Z,99.90
2018-10-06T20:36:08.390Z,99.90
2018-10-06T20:38:37.525Z,99.90
2018-10-06T20:41:06.538Z,99.90
2018-10-06T20:43:35.228Z,99.90
2018-10-06T20:46:03.924Z,99.90
2018-10-06T20:48:32.342Z,99.90
2018-10-06T20:51:01.055Z,99.90
2018-10-06T20:53:29.603Z,99.90
2018-10-06T20:55:58.135Z,99.90
2018-10-06T20:58:27.262Z,99.90
2018-10-06T21:00:55.714Z,99.90
2018-10-06T21:03:24.104Z,99.90
2018-10-06T21:05:52.498Z,99.90
2018-10-06T21:08:21.072Z,99.90
2018-10-06T21:10:49.688Z,99.90
2018-10-06T21:13:18.414Z,99.90
2018-10-06T21:15:46.860Z,99.90
2018-10-06T21:18:15.348Z,99.90
2018-10-06T21:20:43.796Z,99.90
2018-10-06T21:23:12.212Z,99.90
2018-10-06T21:25:40.649Z,99.90
2018-10-06T21:28:09.131Z,99.90
2018-10-06T21:30:37.767Z,99.90
2018-10-06T21:33:06.317Z,99.90
2018-10-06T21:35:34.877Z,99.90
2018-10-06T21:38:03.505Z,99.90
2018-10-06T21:40:32.133Z,99.90
2018-10-06T21:43:00.787Z,99.90
2018-10-06T21:45:29.148Z,99.90
2018-10-06T21:47:57.537Z,99.90
2018-10-06T21:50:25.943Z,99.90
2018-10-06T21:52:54.346Z,99.90
2018-10-06T21:55:22.784Z,99.90
2018-10-06T21:57:51.823Z,99.90
2018-10-06T22:00:20.295Z,99.90
2018-10-06T22:02:48.738Z,99.90
2018-10-06T22:05:17.226Z,99.90
2018-10-06T22:07:45.680Z,99.90
2018-10-06T22:10:14.069Z,99.90
2018-10-06T22:12:42.485Z,99.90
2018-10-06T22:15:10.959Z,99.90
2018-10-06T22:17:39.480Z,99.90
2018-10-06T22:20:07.968Z,99.90
2018-10-06T22:22:36.380Z,99.90
2018-10-06T22:25:04.794Z,99.90
2018-10-06T22:27:33.284Z,99.90
2018-10-06T22:30:01.722Z,99.90
2018-10-06T22:32:30.205Z,99.90
2018-10-06T22:34:58.697Z,99.90
2018-10-06T22:37:27.103Z,99.90
2018-10-06T22:39:55.572Z,99.90
2018-10-06T22:42:23.961Z,99.90
2018-10-06T22:44:52.452Z,99.90
2018-10-06T22:47:20.868Z,99.90
2018-10-06T22:49:49.425Z,99.90
2018-10-06T22:52:17.870Z,99.90
2018-10-06T22:54:46.377Z,99.90
2018-10-06T22:57:14.801Z,99.90
2018-10-06T22:59:43.309Z,99.90
2018-10-06T23:02:11.753Z,99.90
2018-10-06T23:04:40.529Z,99.90
2018-10-06T23:07:09.625Z,99.90
2018-10-06T23:09:38.753Z,99.90
2018-10-06T23:12:07.233Z,99.90
2018-10-06T23:14:35.701Z,99.90
2018-10-06T23:17:04.187Z,99.90
2018-10-06T23:19:32.714Z,99.90
2018-10-06T23:22:01.153Z,99.90
2018-10-06T23:24:29.571Z,99.90
2018-10-06T23:26:58.059Z,99.90
2018-10-06T23:29:26.553Z,99.90
2018-10-06T23:31:55.018Z,99.90
2018-10-06T23:34:23.410Z,99.90
2018-10-06T23:36:51.914Z,99.90
2018-10-06T23:39:20.330Z,99.90
2018-10-06T23:41:48.726Z,99.90
2018-10-06T23:44:17.224Z,99.90
2018-10-06T23:46:45.785Z,99.90
2018-10-06T23:49:14.259Z,99.90
2018-10-06T23:51:42.734Z,99.90
2018-10-06T23:54:11.136Z,99.90
2018-10-06T23:56:39.508Z,99.90
2018-10-06T23:59:08.248Z,99.90
